sensor_id;sensor_type;location;lat;lon;timestamp;P1;durP1;ratioP1;P2;durP2;ratioP2
75682;SDS011;64295;44.772;39.872;2023-04-03T00:01:14;21.67;;;7.97;;
75682;SDS011;64295;44.772;39.872;2023-04-03T00:03:40;20.85;;;9.15;;
75682;SDS011;64295;44.772;39.872;2023-04-03T00:06:09;26.38;;;7.70;;
75682;SDS011;64295;44.772;39.872;2023-04-03T00:08:37;15.82;;;7.78;;
75682;SDS011;64295;44.772;39.872;2023-04-03T00:11:04;16.42;;;7.60;;
75682;SDS011;64295;44.772;39.872;2023-04-03T00:13:32;15.57;;;7.18;;
75682;SDS011;64295;44.772;39.872;2023-04-03T00:15:58;17.95;;;7.93;;
75682;SDS011;64295;44.772;39.872;2023-04-03T00:18:24;12.07;;;6.32;;
75682;SDS011;64295;44.772;39.872;2023-04-03T00:20:50;13.52;;;7.10;;
75682;SDS011;64295;44.772;39.872;2023-04-03T00:23:16;18.20;;;7.60;;
75682;SDS011;64295;44.772;39.872;2023-04-03T00:25:43;18.77;;;7.82;;
75682;SDS011;64295;44.772;39.872;2023-04-03T00:28:09;19.15;;;7.97;;
75682;SDS011;64295;44.772;39.872;2023-04-03T00:30:35;23.35;;;7.97;;
75682;SDS011;64295;44.772;39.872;2023-04-03T00:33:01;20.25;;;9.23;;
75682;SDS011;64295;44.772;39.872;2023-04-03T00:35:27;15.90;;;8.70;;
75682;SDS011;64295;44.772;39.872;2023-04-03T00:37:54;21.55;;;9.82;;
75682;SDS011;64295;44.772;39.872;2023-04-03T00:40:21;22.33;;;9.70;;
75682;SDS011;64295;44.772;39.872;2023-04-03T00:42:51;19.38;;;9.57;;
75682;SDS011;64295;44.772;39.872;2023-04-03T00:47:59;23.35;;;9.65;;
75682;SDS011;64295;44.772;39.872;2023-04-03T00:50:28;20.88;;;10.77;;
75682;SDS011;64295;44.772;39.872;2023-04-03T00:52:56;26.98;;;10.45;;
75682;SDS011;64295;44.772;39.872;2023-04-03T00:55:22;24.02;;;10.40;;
75682;SDS011;64295;44.772;39.872;2023-04-03T00:57:49;22.83;;;10.10;;
75682;SDS011;64295;44.772;39.872;2023-04-03T01:00:16;21.67;;;9.38;;
75682;SDS011;64295;44.772;39.872;2023-04-03T01:02:45;20.70;;;9.93;;
75682;SDS011;64295;44.772;39.872;2023-04-03T01:05:12;19.77;;;9.68;;
75682;SDS011;64295;44.772;39.872;2023-04-03T01:07:40;22.73;;;11.25;;
75682;SDS011;64295;44.772;39.872;2023-04-03T01:10:08;20.65;;;9.77;;
75682;SDS011;64295;44.772;39.872;2023-04-03T01:12:37;28.10;;;9.57;;
75682;SDS011;64295;44.772;39.872;2023-04-03T01:15:09;21.55;;;10.20;;
75682;SDS011;64295;44.772;39.872;2023-04-03T01:17:38;27.85;;;11.15;;
75682;SDS011;64295;44.772;39.872;2023-04-03T01:28:09;16.52;;;8.80;;
75682;SDS011;64295;44.772;39.872;2023-04-03T01:30:52;14.95;;;9.20;;
75682;SDS011;64295;44.772;39.872;2023-04-03T01:33:21;17.67;;;8.63;;
75682;SDS011;64295;44.772;39.872;2023-04-03T01:35:48;14.50;;;7.60;;
75682;SDS011;64295;44.772;39.872;2023-04-03T01:38:14;18.02;;;8.68;;
75682;SDS011;64295;44.772;39.872;2023-04-03T01:40:40;17.45;;;8.52;;
75682;SDS011;64295;44.772;39.872;2023-04-03T01:43:06;18.48;;;8.68;;
75682;SDS011;64295;44.772;39.872;2023-04-03T01:45:32;18.23;;;8.75;;
75682;SDS011;64295;44.772;39.872;2023-04-03T01:47:58;21.35;;;9.05;;
75682;SDS011;64295;44.772;39.872;2023-04-03T01:50:25;17.15;;;6.95;;
75682;SDS011;64295;44.772;39.872;2023-04-03T01:52:51;16.60;;;6.82;;
75682;SDS011;64295;44.772;39.872;2023-04-03T01:55:17;14.55;;;7.70;;
75682;SDS011;64295;44.772;39.872;2023-04-03T01:57:43;15.35;;;6.40;;
75682;SDS011;64295;44.772;39.872;2023-04-03T02:00:09;11.07;;;5.55;;
75682;SDS011;64295;44.772;39.872;2023-04-03T02:02:40;17.63;;;6.55;;
75682;SDS011;64295;44.772;39.872;2023-04-03T02:05:06;9.25;;;4.55;;
75682;SDS011;64295;44.772;39.872;2023-04-03T02:07:32;11.57;;;6.18;;
75682;SDS011;64295;44.772;39.872;2023-04-03T02:09:58;13.77;;;6.32;;
75682;SDS011;64295;44.772;39.872;2023-04-03T02:12:24;17.02;;;7.80;;
75682;SDS011;64295;44.772;39.872;2023-04-03T02:14:50;12.55;;;6.55;;
75682;SDS011;64295;44.772;39.872;2023-04-03T02:17:16;20.85;;;6.80;;
75682;SDS011;64295;44.772;39.872;2023-04-03T02:19:42;18.85;;;6.97;;
75682;SDS011;64295;44.772;39.872;2023-04-03T02:22:08;12.65;;;5.47;;
75682;SDS011;64295;44.772;39.872;2023-04-03T02:24:34;17.17;;;6.45;;
75682;SDS011;64295;44.772;39.872;2023-04-03T02:27:00;15.05;;;5.72;;
75682;SDS011;64295;44.772;39.872;2023-04-03T02:29:27;11.35;;;5.20;;
75682;SDS011;64295;44.772;39.872;2023-04-03T02:31:53;11.40;;;5.15;;
75682;SDS011;64295;44.772;39.872;2023-04-03T02:34:20;11.95;;;5.57;;
75682;SDS011;64295;44.772;39.872;2023-04-03T02:36:46;13.60;;;4.70;;
75682;SDS011;64295;44.772;39.872;2023-04-03T02:39:14;8.23;;;4.18;;
75682;SDS011;64295;44.772;39.872;2023-04-03T02:41:41;7.60;;;3.80;;
75682;SDS011;64295;44.772;39.872;2023-04-03T02:44:12;15.02;;;4.28;;
75682;SDS011;64295;44.772;39.872;2023-04-03T02:46:38;8.80;;;4.28;;
75682;SDS011;64295;44.772;39.872;2023-04-03T02:49:05;8.88;;;5.05;;
75682;SDS011;64295;44.772;39.872;2023-04-03T02:51:31;8.05;;;4.97;;
75682;SDS011;64295;44.772;39.872;2023-04-03T02:53:57;13.15;;;6.18;;
75682;SDS011;64295;44.772;39.872;2023-04-03T02:56:27;11.65;;;5.15;;
75682;SDS011;64295;44.772;39.872;2023-04-03T02:58:53;13.15;;;4.82;;
75682;SDS011;64295;44.772;39.872;2023-04-03T03:01:19;9.00;;;4.45;;
75682;SDS011;64295;44.772;39.872;2023-04-03T03:03:45;10.48;;;4.82;;
75682;SDS011;64295;44.772;39.872;2023-04-03T03:06:13;9.43;;;4.20;;
75682;SDS011;64295;44.772;39.872;2023-04-03T03:08:40;8.35;;;4.40;;
75682;SDS011;64295;44.772;39.872;2023-04-03T03:11:06;9.13;;;4.75;;
75682;SDS011;64295;44.772;39.872;2023-04-03T03:13:33;8.35;;;4.20;;
75682;SDS011;64295;44.772;39.872;2023-04-03T03:16:00;9.75;;;4.68;;
75682;SDS011;64295;44.772;39.872;2023-04-03T03:18:27;7.95;;;4.07;;
75682;SDS011;64295;44.772;39.872;2023-04-03T03:20:53;9.80;;;3.92;;
75682;SDS011;64295;44.772;39.872;2023-04-03T03:23:24;13.38;;;5.38;;
75682;SDS011;64295;44.772;39.872;2023-04-03T03:25:55;7.45;;;4.28;;
75682;SDS011;64295;44.772;39.872;2023-04-03T03:28:22;9.52;;;4.63;;
75682;SDS011;64295;44.772;39.872;2023-04-03T03:30:48;7.97;;;4.25;;
75682;SDS011;64295;44.772;39.872;2023-04-03T03:33:16;8.68;;;3.95;;
75682;SDS011;64295;44.772;39.872;2023-04-03T03:35:43;9.13;;;4.25;;
75682;SDS011;64295;44.772;39.872;2023-04-03T03:38:09;9.35;;;4.63;;
75682;SDS011;64295;44.772;39.872;2023-04-03T03:40:37;7.65;;;3.83;;
75682;SDS011;64295;44.772;39.872;2023-04-03T03:43:03;8.48;;;4.13;;
75682;SDS011;64295;44.772;39.872;2023-04-03T03:45:29;6.82;;;3.67;;
75682;SDS011;64295;44.772;39.872;2023-04-03T03:47:56;4.65;;;3.03;;
75682;SDS011;64295;44.772;39.872;2023-04-03T03:50:22;5.05;;;2.80;;
75682;SDS011;64295;44.772;39.872;2023-04-03T03:52:49;6.07;;;2.95;;
75682;SDS011;64295;44.772;39.872;2023-04-03T03:55:15;6.10;;;3.20;;
75682;SDS011;64295;44.772;39.872;2023-04-03T03:57:40;5.82;;;2.92;;
75682;SDS011;64295;44.772;39.872;2023-04-03T04:00:07;4.47;;;3.00;;
75682;SDS011;64295;44.772;39.872;2023-04-03T04:02:40;6.25;;;2.88;;
75682;SDS011;64295;44.772;39.872;2023-04-03T04:05:09;6.22;;;2.85;;
75682;SDS011;64295;44.772;39.872;2023-04-03T04:07:36;6.53;;;2.60;;
75682;SDS011;64295;44.772;39.872;2023-04-03T04:10:02;5.82;;;2.50;;
75682;SDS011;64295;44.772;39.872;2023-04-03T04:12:29;4.55;;;2.60;;
75682;SDS011;64295;44.772;39.872;2023-04-03T04:14:55;3.33;;;1.90;;
75682;SDS011;64295;44.772;39.872;2023-04-03T04:17:21;4.47;;;2.08;;
75682;SDS011;64295;44.772;39.872;2023-04-03T04:19:48;4.70;;;2.00;;
75682;SDS011;64295;44.772;39.872;2023-04-03T04:22:14;4.65;;;2.45;;
75682;SDS011;64295;44.772;39.872;2023-04-03T04:24:40;3.30;;;1.70;;
75682;SDS011;64295;44.772;39.872;2023-04-03T04:27:07;2.55;;;1.85;;
75682;SDS011;64295;44.772;39.872;2023-04-03T04:29:33;3.85;;;1.63;;
75682;SDS011;64295;44.772;39.872;2023-04-03T04:32:03;5.65;;;2.28;;
75682;SDS011;64295;44.772;39.872;2023-04-03T04:34:31;5.60;;;1.83;;
75682;SDS011;64295;44.772;39.872;2023-04-03T04:36:58;3.35;;;1.90;;
75682;SDS011;64295;44.772;39.872;2023-04-03T04:39:26;5.50;;;1.92;;
75682;SDS011;64295;44.772;39.872;2023-04-03T04:41:54;3.38;;;1.63;;
75682;SDS011;64295;44.772;39.872;2023-04-03T04:44:22;3.05;;;1.63;;
75682;SDS011;64295;44.772;39.872;2023-04-03T04:46:48;4.35;;;1.70;;
75682;SDS011;64295;44.772;39.872;2023-04-03T04:49:15;3.20;;;2.03;;
75682;SDS011;64295;44.772;39.872;2023-04-03T04:51:41;4.18;;;1.83;;
75682;SDS011;64295;44.772;39.872;2023-04-03T04:54:09;4.65;;;2.40;;
75682;SDS011;64295;44.772;39.872;2023-04-03T04:56:36;3.20;;;1.77;;
75682;SDS011;64295;44.772;39.872;2023-04-03T04:59:02;6.57;;;1.90;;
75682;SDS011;64295;44.772;39.872;2023-04-03T05:01:28;4.10;;;1.98;;
75682;SDS011;64295;44.772;39.872;2023-04-03T05:04:01;3.45;;;2.30;;
75682;SDS011;64295;44.772;39.872;2023-04-03T05:06:27;4.20;;;1.85;;
75682;SDS011;64295;44.772;39.872;2023-04-03T05:08:55;4.82;;;2.08;;
75682;SDS011;64295;44.772;39.872;2023-04-03T05:11:22;4.05;;;1.85;;
75682;SDS011;64295;44.772;39.872;2023-04-03T05:13:51;3.03;;;1.83;;
75682;SDS011;64295;44.772;39.872;2023-04-03T05:16:17;3.42;;;1.70;;
75682;SDS011;64295;44.772;39.872;2023-04-03T05:18:43;3.80;;;2.30;;
75682;SDS011;64295;44.772;39.872;2023-04-03T05:21:16;4.70;;;2.05;;
75682;SDS011;64295;44.772;39.872;2023-04-03T05:23:45;4.18;;;2.28;;
75682;SDS011;64295;44.772;39.872;2023-04-03T05:26:10;6.45;;;2.28;;
75682;SDS011;64295;44.772;39.872;2023-04-03T05:28:37;5.68;;;1.92;;
75682;SDS011;64295;44.772;39.872;2023-04-03T05:31:05;3.30;;;1.83;;
75682;SDS011;64295;44.772;39.872;2023-04-03T05:33:34;3.88;;;2.33;;
75682;SDS011;64295;44.772;39.872;2023-04-03T05:36:04;3.03;;;1.80;;
75682;SDS011;64295;44.772;39.872;2023-04-03T05:38:34;3.40;;;1.88;;
75682;SDS011;64295;44.772;39.872;2023-04-03T05:41:02;2.78;;;1.67;;
75682;SDS011;64295;44.772;39.872;2023-04-03T05:43:28;3.70;;;2.28;;
75682;SDS011;64295;44.772;39.872;2023-04-03T05:45:54;3.97;;;1.90;;
75682;SDS011;64295;44.772;39.872;2023-04-03T05:48:22;3.53;;;1.63;;
75682;SDS011;64295;44.772;39.872;2023-04-03T05:50:48;4.30;;;1.75;;
75682;SDS011;64295;44.772;39.872;2023-04-03T05:53:21;3.75;;;1.58;;
75682;SDS011;64295;44.772;39.872;2023-04-03T05:55:51;2.90;;;1.42;;
75682;SDS011;64295;44.772;39.872;2023-04-03T05:58:17;2.10;;;1.42;;
75682;SDS011;64295;44.772;39.872;2023-04-03T06:00:45;3.25;;;1.45;;
75682;SDS011;64295;44.772;39.872;2023-04-03T06:03:11;2.63;;;1.23;;
75682;SDS011;64295;44.772;39.872;2023-04-03T06:05:37;4.25;;;1.27;;
75682;SDS011;64295;44.772;39.872;2023-04-03T06:08:03;2.60;;;1.30;;
75682;SDS011;64295;44.772;39.872;2023-04-03T06:10:30;3.55;;;1.73;;
75682;SDS011;64295;44.772;39.872;2023-04-03T06:12:56;3.85;;;1.40;;
75682;SDS011;64295;44.772;39.872;2023-04-03T06:15:22;4.82;;;1.70;;
75682;SDS011;64295;44.772;39.872;2023-04-03T06:17:48;4.72;;;1.50;;
75682;SDS011;64295;44.772;39.872;2023-04-03T06:20:14;3.55;;;1.73;;
75682;SDS011;64295;44.772;39.872;2023-04-03T06:22:40;2.25;;;1.10;;
75682;SDS011;64295;44.772;39.872;2023-04-03T06:25:07;3.88;;;1.20;;
75682;SDS011;64295;44.772;39.872;2023-04-03T06:27:34;3.08;;;1.10;;
75682;SDS011;64295;44.772;39.872;2023-04-03T06:30:00;1.35;;;1.00;;
75682;SDS011;64295;44.772;39.872;2023-04-03T06:32:26;3.80;;;1.45;;
75682;SDS011;64295;44.772;39.872;2023-04-03T06:34:52;3.72;;;1.17;;
75682;SDS011;64295;44.772;39.872;2023-04-03T06:37:19;2.58;;;1.40;;
75682;SDS011;64295;44.772;39.872;2023-04-03T06:39:47;3.08;;;1.60;;
75682;SDS011;64295;44.772;39.872;2023-04-03T06:42:13;3.90;;;1.17;;
75682;SDS011;64295;44.772;39.872;2023-04-03T06:44:50;3.35;;;1.50;;
75682;SDS011;64295;44.772;39.872;2023-04-03T06:47:16;5.07;;;2.20;;
75682;SDS011;64295;44.772;39.872;2023-04-03T06:49:42;3.92;;;2.08;;
75682;SDS011;64295;44.772;39.872;2023-04-03T06:52:09;3.83;;;1.83;;
75682;SDS011;64295;44.772;39.872;2023-04-03T06:54:37;7.00;;;2.13;;
75682;SDS011;64295;44.772;39.872;2023-04-03T06:57:03;3.90;;;2.47;;
75682;SDS011;64295;44.772;39.872;2023-04-03T06:59:29;3.35;;;2.25;;
75682;SDS011;64295;44.772;39.872;2023-04-03T07:01:55;5.65;;;3.17;;
75682;SDS011;64295;44.772;39.872;2023-04-03T07:04:21;5.57;;;2.38;;
75682;SDS011;64295;44.772;39.872;2023-04-03T07:06:47;7.07;;;2.60;;
75682;SDS011;64295;44.772;39.872;2023-04-03T07:09:13;4.10;;;2.30;;
75682;SDS011;64295;44.772;39.872;2023-04-03T07:11:40;5.30;;;1.92;;
75682;SDS011;64295;44.772;39.872;2023-04-03T07:14:06;3.75;;;2.13;;
75682;SDS011;64295;44.772;39.872;2023-04-03T07:16:33;2.75;;;1.48;;
75682;SDS011;64295;44.772;39.872;2023-04-03T07:19:00;3.10;;;1.80;;
75682;SDS011;64295;44.772;39.872;2023-04-03T07:21:27;3.30;;;1.77;;
75682;SDS011;64295;44.772;39.872;2023-04-03T07:23:53;3.78;;;1.70;;
75682;SDS011;64295;44.772;39.872;2023-04-03T07:26:19;4.65;;;2.13;;
75682;SDS011;64295;44.772;39.872;2023-04-03T07:31:15;4.80;;;2.05;;
75682;SDS011;64295;44.772;39.872;2023-04-03T07:33:42;5.60;;;1.83;;
75682;SDS011;64295;44.772;39.872;2023-04-03T07:36:10;4.40;;;2.15;;
75682;SDS011;64295;44.772;39.872;2023-04-03T07:38:41;3.60;;;1.67;;
75682;SDS011;64295;44.772;39.872;2023-04-03T07:41:07;5.38;;;1.83;;
75682;SDS011;64295;44.772;39.872;2023-04-03T07:43:39;2.75;;;1.70;;
75682;SDS011;64295;44.772;39.872;2023-04-03T07:46:06;3.22;;;1.80;;
75682;SDS011;64295;44.772;39.872;2023-04-03T07:48:31;2.97;;;1.83;;
75682;SDS011;64295;44.772;39.872;2023-04-03T07:51:01;3.33;;;2.05;;
75682;SDS011;64295;44.772;39.872;2023-04-03T07:53:28;3.83;;;1.73;;
75682;SDS011;64295;44.772;39.872;2023-04-03T07:55:54;3.97;;;2.13;;
75682;SDS011;64295;44.772;39.872;2023-04-03T07:58:22;4.35;;;2.13;;
75682;SDS011;64295;44.772;39.872;2023-04-03T08:00:49;3.88;;;1.73;;
75682;SDS011;64295;44.772;39.872;2023-04-03T08:03:15;3.97;;;2.00;;
75682;SDS011;64295;44.772;39.872;2023-04-03T08:05:45;3.25;;;1.80;;
75682;SDS011;64295;44.772;39.872;2023-04-03T08:08:12;5.63;;;2.53;;
75682;SDS011;64295;44.772;39.872;2023-04-03T08:10:40;3.85;;;2.38;;
75682;SDS011;64295;44.772;39.872;2023-04-03T08:13:07;8.02;;;2.78;;
75682;SDS011;64295;44.772;39.872;2023-04-03T08:15:33;2.70;;;1.70;;
75682;SDS011;64295;44.772;39.872;2023-04-03T08:18:00;2.15;;;1.25;;
75682;SDS011;64295;44.772;39.872;2023-04-03T08:20:26;4.90;;;1.48;;
75682;SDS011;64295;44.772;39.872;2023-04-03T08:22:52;2.78;;;1.40;;
75682;SDS011;64295;44.772;39.872;2023-04-03T08:25:18;2.97;;;1.23;;
75682;SDS011;64295;44.772;39.872;2023-04-03T08:27:45;3.20;;;1.00;;
75682;SDS011;64295;44.772;39.872;2023-04-03T08:30:11;3.05;;;1.90;;
75682;SDS011;64295;44.772;39.872;2023-04-03T08:32:37;1.88;;;1.02;;
75682;SDS011;64295;44.772;39.872;2023-04-03T08:35:03;3.13;;;1.25;;
75682;SDS011;64295;44.772;39.872;2023-04-03T08:37:30;2.15;;;1.17;;
75682;SDS011;64295;44.772;39.872;2023-04-03T08:39:56;3.40;;;1.55;;
75682;SDS011;64295;44.772;39.872;2023-04-03T08:45:41;2.38;;;1.35;;
75682;SDS011;64295;44.772;39.872;2023-04-03T08:50:43;3.10;;;1.60;;
75682;SDS011;64295;44.772;39.872;2023-04-03T08:53:25;1.85;;;1.30;;
75682;SDS011;64295;44.772;39.872;2023-04-03T08:55:57;1.90;;;1.15;;
75682;SDS011;64295;44.772;39.872;2023-04-03T08:58:29;1.42;;;1.00;;
75682;SDS011;64295;44.772;39.872;2023-04-03T09:00:59;2.15;;;1.20;;
75682;SDS011;64295;44.772;39.872;2023-04-03T09:03:33;2.17;;;1.40;;
75682;SDS011;64295;44.772;39.872;2023-04-03T09:06:05;2.72;;;1.50;;
75682;SDS011;64295;44.772;39.872;2023-04-03T09:08:53;2.30;;;1.20;;
75682;SDS011;64295;44.772;39.872;2023-04-03T09:11:51;3.55;;;1.50;;
75682;SDS011;64295;44.772;39.872;2023-04-03T09:19:56;3.35;;;1.70;;
75682;SDS011;64295;44.772;39.872;2023-04-03T09:22:24;5.68;;;2.47;;
75682;SDS011;64295;44.772;39.872;2023-04-03T09:25:13;5.93;;;3.10;;
75682;SDS011;64295;44.772;39.872;2023-04-03T09:27:40;3.78;;;1.88;;
75682;SDS011;64295;44.772;39.872;2023-04-03T09:30:16;4.85;;;1.80;;
75682;SDS011;64295;44.772;39.872;2023-04-03T09:32:49;3.15;;;1.73;;
75682;SDS011;64295;44.772;39.872;2023-04-03T09:37:44;2.00;;;1.30;;
75682;SDS011;64295;44.772;39.872;2023-04-03T09:42:54;5.43;;;4.57;;
75682;SDS011;64295;44.772;39.872;2023-04-03T09:45:26;4.78;;;1.40;;
75682;SDS011;64295;44.772;39.872;2023-04-03T09:48:36;2.85;;;1.40;;
75682;SDS011;64295;44.772;39.872;2023-04-03T09:53:29;1.50;;;1.05;;
75682;SDS011;64295;44.772;39.872;2023-04-03T09:56:01;3.42;;;1.10;;
75682;SDS011;64295;44.772;39.872;2023-04-03T09:58:33;4.22;;;1.00;;
75682;SDS011;64295;44.772;39.872;2023-04-03T10:01:05;2.95;;;1.35;;
75682;SDS011;64295;44.772;39.872;2023-04-03T10:03:45;4.70;;;1.30;;
75682;SDS011;64295;44.772;39.872;2023-04-03T10:06:31;1.75;;;1.20;;
75682;SDS011;64295;44.772;39.872;2023-04-03T10:09:02;5.22;;;1.20;;
75682;SDS011;64295;44.772;39.872;2023-04-03T10:11:30;3.58;;;1.35;;
75682;SDS011;64295;44.772;39.872;2023-04-03T10:13:57;1.98;;;1.38;;
75682;SDS011;64295;44.772;39.872;2023-04-03T10:16:48;2.70;;;1.27;;
75682;SDS011;64295;44.772;39.872;2023-04-03T10:24:48;2.38;;;1.02;;
75682;SDS011;64295;44.772;39.872;2023-04-03T10:33:33;1.90;;;1.10;;
75682;SDS011;64295;44.772;39.872;2023-04-03T10:36:45;1.80;;;1.13;;
75682;SDS011;64295;44.772;39.872;2023-04-03T10:42:08;2.15;;;1.13;;
75682;SDS011;64295;44.772;39.872;2023-04-03T10:53:24;2.42;;;1.33;;
75682;SDS011;64295;44.772;39.872;2023-04-03T10:56:22;1.95;;;1.13;;
75682;SDS011;64295;44.772;39.872;2023-04-03T10:59:28;4.72;;;1.88;;
75682;SDS011;64295;44.772;39.872;2023-04-03T11:02:12;2.38;;;1.13;;
75682;SDS011;64295;44.772;39.872;2023-04-03T11:04:51;2.90;;;1.23;;
75682;SDS011;64295;44.772;39.872;2023-04-03T11:07:22;2.47;;;1.20;;
75682;SDS011;64295;44.772;39.872;2023-04-03T11:10:02;4.07;;;1.83;;
75682;SDS011;64295;44.772;39.872;2023-04-03T11:12:46;2.25;;;1.42;;
75682;SDS011;64295;44.772;39.872;2023-04-03T11:15:17;6.53;;;2.17;;
75682;SDS011;64295;44.772;39.872;2023-04-03T11:17:58;2.15;;;1.10;;
75682;SDS011;64295;44.772;39.872;2023-04-03T11:20:31;3.28;;;1.60;;
75682;SDS011;64295;44.772;39.872;2023-04-03T11:25:54;2.92;;;1.70;;
75682;SDS011;64295;44.772;39.872;2023-04-03T11:28:27;5.53;;;1.50;;
75682;SDS011;64295;44.772;39.872;2023-04-03T11:36:29;2.53;;;1.27;;
75682;SDS011;64295;44.772;39.872;2023-04-03T11:39:45;2.53;;;1.20;;
75682;SDS011;64295;44.772;39.872;2023-04-03T11:41:53;3.92;;;1.30;;
75682;SDS011;64295;44.772;39.872;2023-04-03T11:44:30;3.00;;;1.13;;
75682;SDS011;64295;44.772;39.872;2023-04-03T11:46:59;2.40;;;1.40;;
75682;SDS011;64295;44.772;39.872;2023-04-03T12:14:01;4.40;;;2.15;;
75682;SDS011;64295;44.772;39.872;2023-04-03T12:16:33;5.05;;;2.20;;
75682;SDS011;64295;44.772;39.872;2023-04-03T12:38:37;5.15;;;2.40;;
75682;SDS011;64295;44.772;39.872;2023-04-03T12:41:21;2.38;;;1.50;;
75682;SDS011;64295;44.772;39.872;2023-04-03T12:46:36;5.03;;;2.33;;
75682;SDS011;64295;44.772;39.872;2023-04-03T12:49:12;6.72;;;4.88;;
75682;SDS011;64295;44.772;39.872;2023-04-03T12:51:47;6.32;;;3.20;;
75682;SDS011;64295;44.772;39.872;2023-04-03T12:54:19;9.02;;;4.57;;
75682;SDS011;64295;44.772;39.872;2023-04-03T12:59:57;7.13;;;3.88;;
75682;SDS011;64295;44.772;39.872;2023-04-03T13:04:58;7.32;;;2.80;;
75682;SDS011;64295;44.772;39.872;2023-04-03T13:07:31;5.05;;;2.58;;
75682;SDS011;64295;44.772;39.872;2023-04-03T13:10:00;2.33;;;1.50;;
75682;SDS011;64295;44.772;39.872;2023-04-03T13:12:28;8.75;;;3.65;;
75682;SDS011;64295;44.772;39.872;2023-04-03T13:14:54;6.35;;;3.17;;
75682;SDS011;64295;44.772;39.872;2023-04-03T13:17:23;11.15;;;5.70;;
75682;SDS011;64295;44.772;39.872;2023-04-03T13:19:50;11.38;;;5.32;;
75682;SDS011;64295;44.772;39.872;2023-04-03T13:25:09;7.20;;;2.78;;
75682;SDS011;64295;44.772;39.872;2023-04-03T13:27:38;5.03;;;2.72;;
75682;SDS011;64295;44.772;39.872;2023-04-03T13:30:04;4.65;;;2.60;;
75682;SDS011;64295;44.772;39.872;2023-04-03T13:32:31;9.98;;;2.92;;
75682;SDS011;64295;44.772;39.872;2023-04-03T13:34:58;8.73;;;4.15;;
75682;SDS011;64295;44.772;39.872;2023-04-03T13:37:26;8.85;;;4.60;;
75682;SDS011;64295;44.772;39.872;2023-04-03T13:42:33;10.50;;;4.72;;
75682;SDS011;64295;44.772;39.872;2023-04-03T13:47:49;9.45;;;4.60;;
75682;SDS011;64295;44.772;39.872;2023-04-03T13:50:22;8.80;;;4.70;;
75682;SDS011;64295;44.772;39.872;2023-04-03T13:53:01;8.52;;;4.82;;
75682;SDS011;64295;44.772;39.872;2023-04-03T13:56:00;7.40;;;4.43;;
75682;SDS011;64295;44.772;39.872;2023-04-03T13:58:51;10.10;;;4.90;;
75682;SDS011;64295;44.772;39.872;2023-04-03T14:01:24;13.10;;;5.10;;
75682;SDS011;64295;44.772;39.872;2023-04-03T14:03:53;13.07;;;5.13;;
75682;SDS011;64295;44.772;39.872;2023-04-03T14:06:21;10.02;;;3.75;;
75682;SDS011;64295;44.772;39.872;2023-04-03T14:08:47;6.38;;;3.33;;
75682;SDS011;64295;44.772;39.872;2023-04-03T14:11:15;5.55;;;3.08;;
75682;SDS011;64295;44.772;39.872;2023-04-03T14:13:44;5.60;;;3.03;;
75682;SDS011;64295;44.772;39.872;2023-04-03T14:16:15;7.13;;;3.80;;
75682;SDS011;64295;44.772;39.872;2023-04-03T14:18:46;7.32;;;4.75;;
75682;SDS011;64295;44.772;39.872;2023-04-03T14:21:14;11.32;;;9.52;;
75682;SDS011;64295;44.772;39.872;2023-04-03T14:23:43;8.75;;;7.07;;
75682;SDS011;64295;44.772;39.872;2023-04-03T14:26:13;7.20;;;3.92;;
75682;SDS011;64295;44.772;39.872;2023-04-03T14:28:43;6.22;;;3.55;;
75682;SDS011;64295;44.772;39.872;2023-04-03T14:31:11;10.48;;;4.40;;
75682;SDS011;64295;44.772;39.872;2023-04-03T14:33:37;24.90;;;12.13;;
75682;SDS011;64295;44.772;39.872;2023-04-03T14:36:13;10.57;;;5.63;;
75682;SDS011;64295;44.772;39.872;2023-04-03T14:38:40;10.20;;;4.35;;
75682;SDS011;64295;44.772;39.872;2023-04-03T14:41:07;9.13;;;4.78;;
75682;SDS011;64295;44.772;39.872;2023-04-03T14:43:35;9.98;;;6.13;;
75682;SDS011;64295;44.772;39.872;2023-04-03T14:46:01;11.27;;;7.70;;
75682;SDS011;64295;44.772;39.872;2023-04-03T14:48:27;13.05;;;6.03;;
75682;SDS011;64295;44.772;39.872;2023-04-03T14:50:55;12.60;;;5.60;;
75682;SDS011;64295;44.772;39.872;2023-04-03T14:53:21;11.52;;;5.43;;
75682;SDS011;64295;44.772;39.872;2023-04-03T14:55:51;15.68;;;6.50;;
75682;SDS011;64295;44.772;39.872;2023-04-03T14:58:20;10.52;;;5.72;;
75682;SDS011;64295;44.772;39.872;2023-04-03T15:00:49;10.82;;;5.70;;
75682;SDS011;64295;44.772;39.872;2023-04-03T15:05:51;12.63;;;5.80;;
75682;SDS011;64295;44.772;39.872;2023-04-03T15:08:21;15.60;;;6.57;;
75682;SDS011;64295;44.772;39.872;2023-04-03T15:10:50;20.08;;;6.95;;
75682;SDS011;64295;44.772;39.872;2023-04-03T15:13:21;13.52;;;6.28;;
75682;SDS011;64295;44.772;39.872;2023-04-03T15:15:47;13.48;;;6.63;;
75682;SDS011;64295;44.772;39.872;2023-04-03T15:18:22;11.25;;;7.00;;
75682;SDS011;64295;44.772;39.872;2023-04-03T15:20:53;15.80;;;6.72;;
75682;SDS011;64295;44.772;39.872;2023-04-03T15:23:20;9.77;;;5.43;;
75682;SDS011;64295;44.772;39.872;2023-04-03T15:25:51;11.10;;;5.60;;
75682;SDS011;64295;44.772;39.872;2023-04-03T15:30:58;10.13;;;4.07;;
75682;SDS011;64295;44.772;39.872;2023-04-03T15:33:24;7.40;;;3.50;;
75682;SDS011;64295;44.772;39.872;2023-04-03T15:35:50;8.52;;;3.78;;
75682;SDS011;64295;44.772;39.872;2023-04-03T15:38:16;5.72;;;2.78;;
75682;SDS011;64295;44.772;39.872;2023-04-03T15:40:42;7.57;;;2.83;;
75682;SDS011;64295;44.772;39.872;2023-04-03T15:43:09;4.07;;;2.60;;
75682;SDS011;64295;44.772;39.872;2023-04-03T15:45:35;6.88;;;2.90;;
75682;SDS011;64295;44.772;39.872;2023-04-03T15:48:03;6.93;;;3.10;;
75682;SDS011;64295;44.772;39.872;2023-04-03T15:50:30;7.75;;;2.92;;
75682;SDS011;64295;44.772;39.872;2023-04-03T15:52:57;4.85;;;2.80;;
75682;SDS011;64295;44.772;39.872;2023-04-03T15:55:24;4.93;;;3.10;;
75682;SDS011;64295;44.772;39.872;2023-04-03T15:57:51;5.85;;;3.30;;
75682;SDS011;64295;44.772;39.872;2023-04-03T16:00:18;7.10;;;3.13;;
75682;SDS011;64295;44.772;39.872;2023-04-03T16:02:46;8.05;;;3.38;;
75682;SDS011;64295;44.772;39.872;2023-04-03T16:05:13;9.48;;;4.97;;
75682;SDS011;64295;44.772;39.872;2023-04-03T16:07:42;15.18;;;5.53;;
75682;SDS011;64295;44.772;39.872;2023-04-03T16:10:09;20.50;;;8.07;;
75682;SDS011;64295;44.772;39.872;2023-04-03T16:12:36;25.17;;;8.05;;
75682;SDS011;64295;44.772;39.872;2023-04-03T16:15:02;26.92;;;8.90;;
75682;SDS011;64295;44.772;39.872;2023-04-03T16:17:29;27.08;;;9.23;;
75682;SDS011;64295;44.772;39.872;2023-04-03T16:19:56;42.30;;;12.57;;
75682;SDS011;64295;44.772;39.872;2023-04-03T16:22:23;33.78;;;11.93;;
75682;SDS011;64295;44.772;39.872;2023-04-03T16:24:50;43.17;;;14.65;;
75682;SDS011;64295;44.772;39.872;2023-04-03T16:27:16;45.85;;;12.10;;
75682;SDS011;64295;44.772;39.872;2023-04-03T16:29:42;33.30;;;11.57;;
75682;SDS011;64295;44.772;39.872;2023-04-03T16:32:08;31.25;;;11.00;;
75682;SDS011;64295;44.772;39.872;2023-04-03T16:34:34;28.13;;;12.35;;
75682;SDS011;64295;44.772;39.872;2023-04-03T16:37:00;26.75;;;12.18;;
75682;SDS011;64295;44.772;39.872;2023-04-03T16:39:26;24.65;;;10.43;;
75682;SDS011;64295;44.772;39.872;2023-04-03T16:41:52;24.80;;;11.60;;
75682;SDS011;64295;44.772;39.872;2023-04-03T16:44:18;25.73;;;11.73;;
75682;SDS011;64295;44.772;39.872;2023-04-03T16:46:44;23.42;;;10.75;;
75682;SDS011;64295;44.772;39.872;2023-04-03T16:49:10;22.55;;;11.00;;